Time;durP1;ratioP1;P1;durP2;ratioP2;P2;SDS_P1;SDS_P2;PMS_P1;PMS_P2;Temp;Humidity;BMP_temperature;BMP_pressure;BME280_temperature;BME280_humidity;BME280_pressure;Samples;Min_cycle;Max_cycle;Signal;HPM_P1;HPM_P2
2023/02/26 00:00:59;;;;;;;0.00;0.00;;;;;;;9.32;52.79;102103.38;7359612;19;20466;-55
2023/02/26 00:03:24;;;;;;;0.00;0.00;;;;;;;9.34;53.25;102102.53;7361455;19;20022;-55
2023/02/26 00:05:50;;;;;;;0.00;0.00;;;;;;;9.34;52.80;102105.16;7358870;19;20119;-55
2023/02/26 00:08:15;;;;;;;0.00;0.00;;;;;;;9.20;53.20;102077.28;7360418;19;20587;-56
2023/02/26 00:10:41;;;;;;;0.00;0.00;;;;;;;9.36;53.29;102115.56;7361138;19;20472;-55
2023/02/26 00:13:08;;;;;;;0.00;0.00;;;;;;;9.36;53.21;102115.56;7358638;19;20113;-54
2023/02/26 00:15:34;;;;;;;;;;;;;;;9.37;51.77;102112.09;7355903;19;20030;-55
2023/02/26 00:18:05;;;;;;;0.00;0.00;;;;;;;9.37;52.26;102112.09;7356026;19;19918;-55
2023/02/26 00:20:31;;;;;;;0.00;0.00;;;;;;;9.34;52.71;102122.53;7356400;19;20014;-54
2023/02/26 00:22:57;;;;;;;0.00;0.00;;;;;;;9.31;52.56;102117.28;7355089;19;20036;-55
2023/02/26 00:25:22;;;;;;;0.00;0.00;;;;;;;9.22;52.75;102106.81;7358080;19;20010;-55
2023/02/26 00:27:48;;;;;;;0.00;0.00;;;;;;;9.29;52.68;102119.03;7356481;19;20014;-56
2023/02/26 00:30:14;;;;;;;0.00;0.00;;;;;;;9.08;53.12;102096.31;7353554;19;20034;-54
2023/02/26 00:32:40;;;;;;;0.00;0.00;;;;;;;9.29;52.90;102132.06;7355656;19;20110;-55
2023/02/26 00:35:11;;;;;;;0.10;0.10;;;;;;;9.28;53.04;102127.72;7353893;19;20039;-54
2023/02/26 00:37:51;;;;;;;0.00;0.00;;;;;;;9.26;52.69;102129.41;7361992;19;20263;-55
2023/02/26 00:40:34;;;;;;;0.00;0.00;;;;;;;9.27;52.47;102136.38;7359333;19;20010;-53
2023/02/26 00:43:00;;;;;;;0.03;0.03;;;;;;;9.08;53.02;102099.81;7359438;19;20421;-53
2023/02/26 00:45:26;;;;;;;0.00;0.00;;;;;;;9.24;53.06;102131.16;7359715;19;20499;-55
2023/02/26 00:48:27;;;;;;;0.00;0.00;;;;;;;9.28;52.43;102122.50;7358334;19;20031;-56
2023/02/26 00:51:11;;;;;;;0.00;0.00;;;;;;;9.25;52.35;102122.47;7257435;19;2004223;-55
2023/02/26 00:53:48;;;;;;;0.00;0.00;;;;;;;9.27;51.95;102125.94;7360015;19;20031;-56
2023/02/26 00:56:14;;;;;;;0.00;0.00;;;;;;;9.23;51.57;102125.09;7358502;19;20024;-55
2023/02/26 00:58:39;;;;;;;0.00;0.00;;;;;;;9.22;51.85;102127.66;7356187;19;20793;-55
2023/02/26 01:01:04;;;;;;;0.00;0.00;;;;;;;9.06;51.12;102098.03;7353468;19;20054;-56
2023/02/26 01:03:31;;;;;;;0.00;0.00;;;;;;;9.19;51.44;102122.44;7355044;19;20017;-55
2023/02/26 01:05:57;;;;;;;0.00;0.00;;;;;;;9.20;51.67;102129.41;7351471;19;20471;-55
2023/02/26 01:08:44;;;;;;;0.00;0.00;;;;;;;9.23;51.24;102124.22;7354546;19;20582;-54
2023/02/26 01:11:10;;;;;;;0.00;0.00;;;;;;;9.18;50.99;102133.75;7352041;19;21020;-54
2023/02/26 01:13:35;;;;;;;0.00;0.00;;;;;;;9.15;50.71;102131.09;7357198;19;20073;-54
2023/02/26 01:16:06;;;;;;;0.00;0.00;;;;;;;9.16;51.23;102133.72;7354909;19;20098;-55
2023/02/26 01:18:49;;;;;;;0.00;0.00;;;;;;;9.14;50.92;102126.75;7356611;19;20041;-55
2023/02/26 01:21:21;;;;;;;0.00;0.00;;;;;;;9.12;50.46;102149.31;7355285;19;20095;-55
2023/02/26 01:23:50;;;;;;;0.00;0.00;;;;;;;9.08;50.55;102140.63;7358337;19;20010;-55
2023/02/26 01:26:22;;;;;;;0.00;0.00;;;;;;;8.87;50.95;102111.78;7356569;19;20047;-55
2023/02/26 01:28:48;;;;;;;0.00;0.00;;;;;;;8.86;50.92;102113.53;7358254;19;20469;-55
2023/02/26 01:31:48;;;;;;;0.00;0.00;;;;;;;8.78;50.94;102105.69;7356504;19;20009;-54
2023/02/26 01:34:19;;;;;;;0.00;0.00;;;;;;;8.87;50.95;102141.34;7251671;19;2004197;-56
2023/02/26 01:36:55;;;;;;;0.00;0.00;;;;;;;8.72;51.04;102115.19;7359356;19;20557;-56
2023/02/26 01:39:39;;;;;;;0.00;0.00;;;;;;;8.73;50.84;102135.16;7358914;19;20010;-55
2023/02/26 01:42:18;;;;;;;0.00;0.00;;;;;;;8.67;51.42;102142.91;7355302;19;20014;-54
2023/02/26 01:44:54;;;;;;;0.00;0.00;;;;;;;8.60;51.32;102138.50;7357804;19;20018;-56
2023/02/26 01:47:46;;;;;;;0.00;0.00;;;;;;;8.54;51.27;102145.41;7358318;19;20011;-53
2023/02/26 01:50:16;;;;;;;0.00;0.00;;;;;;;8.47;51.05;102146.22;7359693;19;20010;-55
2023/02/26 01:52:47;;;;;;;0.00;0.00;;;;;;;8.44;51.07;102140.97;7357340;19;20045;-55
2023/02/26 01:55:20;;;;;;;0.00;0.00;;;;;;;8.41;51.28;102151.34;7358995;19;20007;-54
2023/02/26 01:57:45;;;;;;;0.10;0.10;;;;;;;8.37;51.67;102154.81;7357465;19;20007;-56
2023/02/26 02:00:12;;;;;;;0.00;0.00;;;;;;;8.35;51.50;102151.25;7361155;19;20597;-55
2023/02/26 02:02:37;;;;;;;0.00;0.00;;;;;;;8.33;51.91;102159.06;7357775;19;20006;-55
2023/02/26 02:05:11;;;;;;;0.00;0.00;;;;;;;8.31;51.88;102149.47;7355240;19;20022;-55
2023/02/26 02:07:36;;;;;;;0.00;0.00;;;;;;;8.32;52.12;102156.47;7357657;19;20032;-55
2023/02/26 02:10:03;;;;;;;0.00;0.00;;;;;;;8.21;52.53;102142.44;7355778;19;20132;-55
2023/02/26 02:12:34;;;;;;;0.00;0.00;;;;;;;8.29;52.24;102161.63;7356575;19;20023;-55
2023/02/26 02:15:11;;;;;;;0.00;0.00;;;;;;;8.29;52.17;102156.41;7353788;19;20023;-55
2023/02/26 02:18:10;;;;;;;0.03;0.03;;;;;;;8.32;52.16;102156.47;7354102;19;20712;-55
2023/02/26 02:21:00;;;;;;;0.00;0.00;;;;;;;8.33;52.03;102158.19;7243075;19;2004400;-55
2023/02/26 02:23:47;;;;;;;0.00;0.00;;;;;;;8.33;52.39;102160.81;7352041;19;20351;-56
2023/02/26 02:26:38;;;;;;;0.00;0.00;;;;;;;8.22;52.04;102139.00;7356515;19;20423;-56
2023/02/26 02:29:22;;;;;;;0.00;0.00;;;;;;;8.33;51.89;102160.81;7349345;19;20117;-53
2023/02/26 02:32:00;;;;;;;0.00;0.00;;;;;;;8.30;52.06;102160.75;7354547;19;20018;-56
2023/02/26 02:34:48;;;;;;;0.00;0.00;;;;;;;8.31;52.19;102165.09;7353509;19;20015;-55
2023/02/26 02:37:22;;;;;;;0.00;0.00;;;;;;;8.30;52.22;102169.44;7355476;19;20031;-54
2023/02/26 02:40:00;;;;;;;0.00;0.00;;;;;;;8.24;52.41;102165.91;7357636;19;20017;-55
2023/02/26 02:42:41;;;;;;;0.00;0.00;;;;;;;8.19;52.11;102159.78;7356291;19;20021;-55
2023/02/26 02:45:14;;;;;;;0.00;0.00;;;;;;;8.29;52.33;102174.63;7354651;19;20924;-55
2023/02/26 02:47:43;;;;;;;0.00;0.00;;;;;;;8.24;52.32;102169.38;7353201;19;20746;-55
2023/02/26 02:50:20;;;;;;;0.00;0.00;;;;;;;8.28;52.29;102175.50;7356833;19;20011;-54
2023/02/26 02:52:53;;;;;;;0.00;0.00;;;;;;;8.21;52.04;102173.66;7353978;19;20018;-55
2023/02/26 02:55:28;;;;;;;0.00;0.00;;;;;;;8.27;52.39;102187.63;7352742;19;20476;-54
2023/02/26 02:58:07;;;;;;;0.10;0.10;;;;;;;8.26;52.06;102178.09;7346193;19;20027;-54
2023/02/26 03:00:37;;;;;;;0.00;0.00;;;;;;;8.23;51.85;102182.38;7345512;19;20045;-55
2023/02/26 03:03:33;;;;;;;0.00;0.00;;;;;;;8.13;51.67;102170.13;7355303;19;20014;-54
2023/02/26 03:05:59;;;;;;;0.00;0.00;;;;;;;8.15;52.33;102178.81;7252997;19;2004406;-56
2023/02/26 03:08:28;;;;;;;0.10;0.10;;;;;;;8.17;52.04;102178.00;7354632;19;20003;-55
2023/02/26 03:10:55;;;;;;;0.00;0.00;;;;;;;8.02;52.03;102163.06;7356176;19;20651;-54
2023/02/26 03:13:24;;;;;;;0.00;0.00;;;;;;;8.14;52.15;102182.28;7346262;19;20329;-55
2023/02/26 03:15:55;;;;;;;0.00;0.00;;;;;;;8.13;52.15;102190.94;7350235;19;20018;-54
2023/02/26 03:18:21;;;;;;;0.10;0.10;;;;;;;8.10;51.89;102196.09;7354333;19;20002;-52
2023/02/26 03:21:05;;;;;;;0.00;0.00;;;;;;;8.10;51.73;102193.50;7354790;19;20101;-56
2023/02/26 03:23:35;;;;;;;0.00;0.00;;;;;;;8.04;51.53;102189.97;7352848;19;20006;-53
2023/02/26 03:26:05;;;;;;;0.00;0.00;;;;;;;7.73;51.89;102128.06;7349017;19;20334;-55
2023/02/26 03:28:52;;;;;;;0.00;0.00;;;;;;;8.06;51.67;102185.69;7353673;19;20754;-56
2023/02/26 03:31:40;;;;;;;0.00;0.00;;;;;;;7.98;52.09;102166.50;7353816;19;20028;-54
2023/02/26 03:34:23;;;;;;;0.00;0.00;;;;;;;8.02;52.11;102178.69;7353671;19;20417;-54
2023/02/26 03:37:01;;;;;;;0.00;0.00;;;;;;;8.01;51.77;102179.56;7355300;19;20006;-54
2023/02/26 03:39:26;;;;;;;;;;;;;;;8.07;51.80;102187.41;7354655;19;20014;-54
2023/02/26 03:42:01;;;;;;;0.00;0.00;;;;;;;8.05;51.76;102193.44;7353471;19;22191;-56
2023/02/26 03:44:35;;;;;;;0.00;0.00;;;;;;;8.01;52.04;102184.75;7352815;19;20492;-55
2023/02/26 03:47:07;;;;;;;0.10;0.10;;;;;;;8.06;52.00;102196.09;7348883;19;20010;-54
2023/02/26 03:49:38;;;;;;;0.00;0.00;;;;;;;7.89;52.39;102175.91;7354888;19;20011;-56
2023/02/26 03:52:05;;;;;;;0.00;0.00;;;;;;;8.05;52.34;102198.66;7349238;19;20526;-55
2023/02/26 03:54:38;;;;;;;0.00;0.00;;;;;;;8.06;52.44;102196.09;7346395;19;20034;-55
2023/02/26 03:57:03;;;;;;;0.00;0.00;;;;;;;8.05;52.31;102196.91;7355398;19;20019;-55
2023/02/26 03:59:29;;;;;;;0.00;0.00;;;;;;;8.01;52.59;102186.47;7361305;19;20733;-56
2023/02/26 04:02:02;;;;;;;0.10;0.10;;;;;;;8.05;52.32;102189.09;7357034;19;20029;-55
2023/02/26 04:04:41;;;;;;;0.00;0.00;;;;;;;7.93;52.24;102182.91;7361616;19;20017;-56
2023/02/26 04:07:07;;;;;;;0.00;0.00;;;;;;;7.91;52.28;102188.09;7352536;19;20017;-55
2023/02/26 04:09:33;;;;;;;0.00;0.00;;;;;;;8.01;52.44;102204.69;7362264;19;20030;-56
2023/02/26 04:11:58;;;;;;;0.05;0.05;;;;;;;8.00;52.04;102209.00;7345879;19;20020;-55
2023/02/26 04:14:24;;;;;;;0.00;0.00;;;;;;;7.99;52.06;102215.06;7336055;19;20026;-55
2023/02/26 04:16:49;;;;;;;0.00;0.00;;;;;;;7.91;52.24;102201.09;7350776;19;20013;-54
2023/02/26 04:19:15;;;;;;;0.00;0.00;;;;;;;7.99;52.18;102220.25;7343362;19;20870;-56
2023/02/26 04:21:40;;;;;;;0.00;0.00;;;;;;;8.00;52.34;102218.53;7336725;19;20018;-55
2023/02/26 04:24:06;;;;;;;0.00;0.00;;;;;;;7.97;52.42;102227.19;7360355;19;20043;-56
2023/02/26 04:26:31;;;;;;;0.00;0.00;;;;;;;7.98;52.46;102223.72;7356257;19;20361;-53
2023/02/26 04:28:56;;;;;;;0.00;0.00;;;;;;;7.99;52.39;102225.47;7363346;19;20042;-55
2023/02/26 04:31:22;;;;;;;0.00;0.00;;;;;;;7.90;51.93;102209.75;7354678;19;20014;-55
2023/02/26 04:33:47;;;;;;;0.00;0.00;;;;;;;7.77;52.19;102187.06;7362157;19;20365;-55
2023/02/26 04:36:13;;;;;;;0.10;0.10;;;;;;;7.97;52.56;102221.97;7354678;19;20093;-55
2023/02/26 04:38:38;;;;;;;0.00;0.00;;;;;;;8.03;52.41;102231.59;7358047;19;20757;-55
2023/02/26 04:41:04;;;;;;;0.00;0.00;;;;;;;7.86;52.30;102202.78;7361711;19;20016;-55
2023/02/26 04:43:30;;;;;;;0.00;0.00;;;;;;;7.92;52.55;102210.66;7355486;19;20039;-56
2023/02/26 04:45:55;;;;;;;0.00;0.00;;;;;;;7.91;52.34;102206.31;7359712;19;20069;-56
2023/02/26 04:48:20;;;;;;;0.00;0.00;;;;;;;8.05;52.46;102230.72;7359260;19;20039;-55
2023/02/26 04:50:46;;;;;;;0.00;0.00;;;;;;;8.06;52.54;102240.31;7353358;19;20074;-54
2023/02/26 04:53:11;;;;;;;0.00;0.00;;;;;;;8.03;52.67;102232.47;7360815;19;20011;-54
2023/02/26 04:55:37;;;;;;;0.00;0.00;;;;;;;8.09;52.51;102242.06;7360829;19;20007;-56
2023/02/26 04:58:03;;;;;;;0.00;0.00;;;;;;;8.11;52.62;102245.56;7360627;19;20890;-53
2023/02/26 05:00:28;;;;;;;0.00;0.00;;;;;;;8.12;52.80;102249.06;7359247;19;20461;-56
2023/02/26 05:02:54;;;;;;;0.00;0.00;;;;;;;8.14;52.80;102239.53;7356056;19;20081;-55
2023/02/26 05:05:19;;;;;;;0.00;0.00;;;;;;;8.15;52.46;102247.34;7359784;19;20772;-53
2023/02/26 05:07:45;;;;;;;0.00;0.00;;;;;;;8.17;52.59;102249.97;7356799;19;20486;-55
2023/02/26 05:10:11;;;;;;;0.00;0.00;;;;;;;8.04;52.78;102223.78;7358642;19;20030;-54
2023/02/26 05:12:36;;;;;;;0.00;0.00;;;;;;;8.19;52.57;102248.25;7365269;19;20011;-54
2023/02/26 05:15:03;;;;;;;0.08;0.08;;;;;;;8.18;52.78;102252.59;7364227;19;20023;-54
2023/02/26 05:17:28;;;;;;;0.00;0.00;;;;;;;8.22;52.75;102263.91;7363032;19;20018;-54
2023/02/26 05:19:53;;;;;;;0.00;0.00;;;;;;;8.12;52.86;102241.25;7362171;19;20039;-55
2023/02/26 05:22:19;;;;;;;0.00;0.00;;;;;;;8.11;52.78;102244.69;7357702;19;20813;-55
2023/02/26 05:24:44;;;;;;;0.00;0.00;;;;;;;8.25;52.94;102269.13;7354187;19;20086;-53
2023/02/26 05:27:10;;;;;;;0.00;0.00;;;;;;;8.19;52.50;102263.88;7358582;19;20020;-55
2023/02/26 05:29:36;;;;;;;0.10;0.10;;;;;;;8.26;52.80;102270.88;7355589;19;20006;-55
2023/02/26 05:32:02;;;;;;;0.00;0.00;;;;;;;8.28;53.14;102272.66;7358570;19;20014;-55
2023/02/26 05:34:27;;;;;;;0.00;0.00;;;;;;;8.27;52.99;102268.31;7357142;19;20079;-54
2023/02/26 05:36:53;;;;;;;0.00;0.00;;;;;;;8.31;52.97;102271.81;7359344;19;20664;-55
2023/02/26 05:39:18;;;;;;;0.08;0.08;;;;;;;8.33;52.99;102272.72;7353333;19;20467;-56
2023/02/26 05:41:45;;;;;;;0.00;0.00;;;;;;;8.33;53.43;102273.59;7359931;19;20764;-56
2023/02/26 05:44:10;;;;;;;0.00;0.00;;;;;;;7.99;53.00;102212.47;7357706;19;20030;-56
2023/02/26 05:46:36;;;;;;;0.00;0.00;;;;;;;8.35;53.16;102271.00;7360863;19;20475;-55
2023/02/26 05:49:01;;;;;;;0.00;0.00;;;;;;;8.32;53.19;102270.97;7351631;19;20014;-55
2023/02/26 05:51:28;;;;;;;0.08;0.08;;;;;;;7.95;53.19;102208.06;7358343;19;20014;-56
2023/02/26 05:53:53;;;;;;;0.00;0.00;;;;;;;8.32;53.38;102270.97;7356304;19;20014;-54
2023/02/26 05:56:19;;;;;;;0.00;0.00;;;;;;;8.35;53.32;102284.00;7356657;19;20564;-54
2023/02/26 05:58:44;;;;;;;0.08;0.08;;;;;;;8.32;53.46;102277.06;7355750;19;20043;-54
2023/02/26 06:01:09;;;;;;;0.00;0.00;;;;;;;8.36;53.09;102288.38;7357903;19;20014;-55
2023/02/26 06:03:35;;;;;;;0.00;0.00;;;;;;;8.36;53.05;102293.59;7355605;19;20522;-55
2023/02/26 06:06:00;;;;;;;0.00;0.00;;;;;;;8.30;53.43;102281.34;7358141;19;20475;-54
2023/02/26 06:08:26;;;;;;;0.00;0.00;;;;;;;8.41;53.28;102301.47;7356780;19;20017;-54
2023/02/26 06:10:51;;;;;;;0.00;0.00;;;;;;;8.41;53.26;102298.84;7357257;19;20010;-55
2023/02/26 06:13:18;;;;;;;0.05;0.05;;;;;;;8.42;53.13;102304.09;7360611;19;20616;-53
2023/02/26 06:15:43;;;;;;;0.08;0.08;;;;;;;8.05;52.74;102241.16;7354010;19;20019;-55
2023/02/26 06:18:09;;;;;;;0.00;0.00;;;;;;;8.40;52.71;102290.19;7356190;19;20010;-56
2023/02/26 06:20:35;;;;;;;0.00;0.00;;;;;;;8.40;52.39;102300.59;7354327;19;20020;-55
2023/02/26 06:23:00;;;;;;;0.00;0.00;;;;;;;8.42;52.52;102304.09;7356844;19;20044;-55
2023/02/26 06:25:25;;;;;;;0.00;0.00;;;;;;;8.34;52.48;102303.09;7351468;19;20010;-55
2023/02/26 06:27:51;;;;;;;0.00;0.00;;;;;;;8.41;52.79;102315.34;7356807;19;20081;-55
2023/02/26 06:30:17;;;;;;;0.00;0.00;;;;;;;8.33;52.35;102310.03;7354340;19;20018;-55
2023/02/26 06:32:43;;;;;;;0.08;0.08;;;;;;;8.42;52.70;102324.06;7359138;19;20010;-55
2023/02/26 06:35:09;;;;;;;0.00;0.00;;;;;;;8.37;52.50;102316.19;7353747;19;20359;-55
2023/02/26 06:37:34;;;;;;;0.00;0.00;;;;;;;8.41;52.47;102317.94;7356315;19;20014;-53
2023/02/26 06:39:59;;;;;;;0.00;0.00;;;;;;;8.42;52.33;102319.72;7355710;19;20086;-53
2023/02/26 06:42:25;;;;;;;0.00;0.00;;;;;;;8.23;52.45;102286.47;7351396;19;20117;-55
2023/02/26 06:44:50;;;;;;;0.00;0.00;;;;;;;8.40;52.18;102324.00;7355608;19;20013;-54
2023/02/26 06:47:16;;;;;;;0.00;0.00;;;;;;;8.37;52.41;102317.91;7352003;19;20006;-55
2023/02/26 06:49:41;;;;;;;0.00;0.00;;;;;;;8.39;52.49;102324.88;7354689;19;20017;-56
2023/02/26 06:52:07;;;;;;;0.00;0.00;;;;;;;8.34;52.35;102316.09;7351082;19;20006;-56
2023/02/26 06:54:32;;;;;;;0.00;0.00;;;;;;;8.35;52.53;102323.06;7358935;19;20015;-55
2023/02/26 06:56:59;;;;;;;0.00;0.00;;;;;;;8.40;52.20;102337.03;7356462;19;20594;-56
2023/02/26 06:59:24;;;;;;;0.00;0.00;;;;;;;8.23;52.30;102307.28;7345283;19;20014;-56
2023/02/26 07:01:50;;;;;;;0.00;0.00;;;;;;;8.41;53.08;102341.38;7349995;19;20479;-56
2023/02/26 07:04:15;;;;;;;0.00;0.00;;;;;;;8.41;52.78;102348.31;7355041;19;20677;-57
2023/02/26 07:06:41;;;;;;;0.00;0.00;;;;;;;8.37;53.10;102349.16;7353935;19;20038;-56
2023/02/26 07:09:06;;;;;;;0.00;0.00;;;;;;;8.39;53.44;102356.13;7356399;19;20671;-55
2023/02/26 07:11:32;;;;;;;0.00;0.00;;;;;;;8.38;53.73;102354.38;7351541;19;20011;-55
2023/02/26 07:13:57;;;;;;;0.10;0.10;;;;;;;8.40;54.10;102357.84;7355837;19;21484;-53
2023/02/26 07:16:22;;;;;;;0.00;0.00;;;;;;;8.10;54.16;102316.66;7354153;19;20039;-56
2023/02/26 07:18:48;;;;;;;0.00;0.00;;;;;;;8.01;53.83;102301.81;7355282;19;20086;-56
2023/02/26 07:21:13;;;;;;;0.00;0.00;;;;;;;8.39;54.11;102365.66;7347388;19;20003;-55
2023/02/26 07:23:39;;;;;;;0.00;0.00;;;;;;;8.43;54.43;102378.75;7353723;19;20014;-55
2023/02/26 07:26:04;;;;;;;0.00;0.00;;;;;;;8.32;54.26;102369.88;7353585;19;20007;-55
2023/02/26 07:28:29;;;;;;;0.00;0.00;;;;;;;8.44;54.24;102393.50;7354668;19;20105;-56
2023/02/26 07:30:55;;;;;;;0.00;0.00;;;;;;;8.43;54.27;102396.97;7353060;19;20011;-55
2023/02/26 07:33:21;;;;;;;0.00;0.00;;;;;;;8.41;54.18;102389.97;7361333;19;20013;-55
2023/02/26 07:35:47;;;;;;;0.10;0.10;;;;;;;8.44;54.48;102400.44;7359667;19;20006;-55
2023/02/26 07:38:13;;;;;;;0.08;0.08;;;;;;;8.43;54.56;102394.34;7364003;19;20014;-56
2023/02/26 07:40:38;;;;;;;0.00;0.00;;;;;;;8.42;54.65;102392.63;7355843;19;20014;-56
2023/02/26 07:43:04;;;;;;;0.00;0.00;;;;;;;8.02;54.65;102324.38;7360604;19;20015;-55
2023/02/26 07:45:29;;;;;;;0.00;0.00;;;;;;;8.44;55.09;102406.50;7356753;19;20014;-54
2023/02/26 07:47:54;;;;;;;0.00;0.00;;;;;;;8.45;55.06;102413.47;7359331;19;20007;-55
2023/02/26 07:50:23;;;;;;;0.00;0.00;;;;;;;8.40;55.04;102409.06;7357093;19;20010;-55
2023/02/26 07:52:50;;;;;;;0.00;0.00;;;;;;;8.45;55.02;102423.88;7363264;19;20035;-56
2023/02/26 07:55:15;;;;;;;0.00;0.00;;;;;;;8.15;55.19;102376.56;7354221;19;20071;-55
2023/02/26 07:57:41;;;;;;;0.00;0.00;;;;;;;8.43;55.32;102425.59;7361172;19;20011;-55
2023/02/26 08:00:07;;;;;;;0.08;0.08;;;;;;;8.37;55.37;102409.91;7355828;19;20010;-55
2023/02/26 08:02:32;;;;;;;0.03;0.03;;;;;;;8.48;55.27;102434.34;7360128;19;20389;-55
2023/02/26 08:04:58;;;;;;;0.10;0.10;;;;;;;8.47;55.07;102429.13;7356321;19;20041;-55
2023/02/26 08:07:23;;;;;;;0.00;0.00;;;;;;;8.36;55.41;102402.91;7362337;19;20065;-56
2023/02/26 08:09:48;;;;;;;0.00;0.00;;;;;;;8.53;55.27;102427.47;7358933;19;20010;-56
2023/02/26 08:12:14;;;;;;;0.00;0.00;;;;;;;8.53;55.85;102431.81;7360517;19;20007;-55
2023/02/26 08:14:42;;;;;;;0.00;0.00;;;;;;;8.54;55.69;102436.16;7360972;19;20013;-55
2023/02/26 08:17:08;;;;;;;0.00;0.00;;;;;;;8.55;55.57;102446.59;7357546;19;20023;-55
2023/02/26 08:19:34;;;;;;;0.00;0.00;;;;;;;8.55;55.45;102449.19;7361052;19;20038;-55
2023/02/26 08:21:59;;;;;;;0.00;0.00;;;;;;;8.54;55.17;102450.03;7351474;19;20039;-54
2023/02/26 08:24:24;;;;;;;0.05;0.05;;;;;;;8.48;55.17;102447.38;7353523;19;20014;-55
2023/02/26 08:26:50;;;;;;;0.00;0.00;;;;;;;8.55;55.14;102462.19;7356532;19;20018;-57
2023/02/26 08:29:16;;;;;;;0.00;0.00;;;;;;;8.61;55.07;102481.38;7360467;19;20003;-56
2023/02/26 08:31:42;;;;;;;0.00;0.00;;;;;;;8.62;55.17;102485.72;7357162;19;20371;-55
2023/02/26 08:34:07;;;;;;;0.00;0.00;;;;;;;8.63;55.20;102484.88;7360039;19;20514;-55
2023/02/26 08:36:32;;;;;;;0.05;0.05;;;;;;;8.64;55.20;102482.28;7356186;19;20025;-55
2023/02/26 08:38:58;;;;;;;0.10;0.10;;;;;;;8.65;55.11;102484.03;7358292;19;20014;-56
2023/02/26 08:41:26;;;;;;;0.00;0.00;;;;;;;8.68;54.39;102483.22;7354705;19;20492;-55
2023/02/26 08:43:51;;;;;;;0.00;0.00;;;;;;;8.67;54.90;102484.06;7353318;19;20020;-55
2023/02/26 08:46:17;;;;;;;0.00;0.00;;;;;;;8.68;54.65;102485.81;7356353;19;20739;-56
2023/02/26 08:48:42;;;;;;;0.00;0.00;;;;;;;8.72;54.55;102492.84;7356020;19;20022;-56
2023/02/26 08:51:08;;;;;;;0.00;0.00;;;;;;;8.72;54.44;102501.53;7350124;19;20006;-56
2023/02/26 08:53:33;;;;;;;0.03;0.03;;;;;;;8.67;54.54;102495.38;7357722;19;20006;-56
2023/02/26 08:55:58;;;;;;;0.00;0.00;;;;;;;8.76;54.88;102502.41;7351066;19;20019;-55
2023/02/26 08:58:24;;;;;;;0.00;0.00;;;;;;;8.81;54.58;102511.16;7354046;19;20807;-55
2023/02/26 09:00:49;;;;;;;0.00;0.00;;;;;;;8.84;54.67;102511.22;7355377;19;20053;-55
2023/02/26 09:03:15;;;;;;;0.00;0.00;;;;;;;8.84;54.51;102503.41;7357406;19;20037;-56
2023/02/26 09:05:40;;;;;;;0.10;0.10;;;;;;;8.87;54.41;102500.84;7352803;19;20018;-56
2023/02/26 09:08:07;;;;;;;0.10;0.10;;;;;;;8.91;54.46;102513.03;7323575;19;21463;-55
2023/02/26 09:10:33;;;;;;;0.00;0.00;;;;;;;8.93;54.50;102505.25;7353203;19;20014;-55
2023/02/26 09:12:58;;;;;;;0.00;0.00;;;;;;;8.95;54.52;102509.63;7352187;19;20052;-55
2023/02/26 09:15:24;;;;;;;0.00;0.00;;;;;;;8.97;54.63;102510.53;7348689;19;20014;-55
2023/02/26 09:17:50;;;;;;;0.00;0.00;;;;;;;8.98;54.50;102514.88;7356254;19;20409;-54
2023/02/26 09:20:16;;;;;;;0.10;0.10;;;;;;;9.01;53.96;102508.81;7352308;19;20017;-55
2023/02/26 09:22:42;;;;;;;0.00;0.00;;;;;;;9.04;53.78;102519.31;7347869;19;20006;-56
2023/02/26 09:25:07;;;;;;;0.00;0.00;;;;;;;9.04;54.02;102521.91;7353930;19;20025;-56
2023/02/26 09:27:34;;;;;;;0.03;0.03;;;;;;;9.08;53.93;102527.19;7354872;19;20029;-54
2023/02/26 09:30:00;;;;;;;0.00;0.00;;;;;;;9.12;53.79;102527.19;7353778;19;20025;-55
2023/02/26 09:32:25;;;;;;;0.08;0.08;;;;;;;9.15;53.89;102522.03;7357753;19;20010;-55
2023/02/26 09:34:51;;;;;;;0.00;0.00;;;;;;;9.14;53.78;102526.38;7359510;19;20014;-55
2023/02/26 09:37:17;;;;;;;0.00;0.00;;;;;;;9.07;53.53;102520.22;7357776;19;20833;-53
2023/02/26 09:39:43;;;;;;;0.00;0.00;;;;;;;9.18;53.65;102538.59;7356464;19;20116;-55
2023/02/26 09:42:14;;;;;;;0.08;0.08;;;;;;;9.26;53.92;102542.16;7354981;19;20014;-55
2023/02/26 09:44:40;;;;;;;0.00;0.00;;;;;;;9.28;53.64;102552.63;7356086;19;20018;-56
2023/02/26 09:47:12;;;;;;;0.00;0.00;;;;;;;9.37;53.77;102555.31;7353648;19;20021;-54
2023/02/26 09:49:50;;;;;;;0.00;0.00;;;;;;;9.53;53.78;102551.16;7349138;19;20021;-56
2023/02/26 09:52:30;;;;;;;0.00;0.00;;;;;;;9.65;53.68;102551.31;7353888;19;20015;-56
2023/02/26 09:55:00;;;;;;;0.00;0.00;;;;;;;9.76;53.25;102554.03;7355050;19;20022;-55
2023/02/26 09:57:31;;;;;;;0.10;0.10;;;;;;;9.82;52.89;102549.72;7347972;19;20047;-55
2023/02/26 09:59:59;;;;;;;0.00;0.00;;;;;;;9.67;53.32;102527.84;7352645;19;20113;-55
2023/02/26 10:02:44;;;;;;;0.00;0.00;;;;;;;9.90;53.14;102562.00;7348407;19;20025;-56
2023/02/26 10:05:22;;;;;;;0.00;0.00;;;;;;;9.93;53.27;102567.22;7354119;19;20039;-56
2023/02/26 10:07:56;;;;;;;0.00;0.00;;;;;;;9.92;53.39;102582.00;7358792;19;20013;-56
2023/02/26 10:11:00;;;;;;;0.00;0.00;;;;;;;9.99;53.42;102578.63;7358952;19;20703;-55
2023/02/26 10:13:52;;;;;;;0.00;0.00;;;;;;;10.03;53.57;102590.81;7244812;19;2004544;-56
2023/02/26 10:16:24;;;;;;;0.00;0.00;;;;;;;10.02;53.10;102583.84;7247673;19;2004649;-55
2023/02/26 10:19:14;;;;;;;0.10;0.10;;;;;;;10.08;53.12;102594.34;7355378;19;20018;-55
2023/02/26 10:21:54;;;;;;;0.00;0.00;;;;;;;10.09;53.08;102587.44;7355424;19;20026;-56
2023/02/26 10:24:37;;;;;;;0.00;0.00;;;;;;;10.10;53.24;102592.66;7352505;19;20043;-56
2023/02/26 10:27:15;;;;;;;0.00;0.00;;;;;;;10.10;52.96;102610.06;7350551;19;20019;-56
2023/02/26 10:29:47;;;;;;;0.00;0.00;;;;;;;10.12;52.79;102627.47;7353141;19;20010;-55
2023/02/26 10:32:31;;;;;;;0.00;0.00;;;;;;;10.14;52.93;102620.53;7348980;19;21513;-56
2023/02/26 10:35:03;;;;;;;0.00;0.00;;;;;;;10.07;53.11;102608.28;7343518;19;20480;-56
2023/02/26 10:37:47;;;;;;;0.00;0.00;;;;;;;10.14;53.12;102624.88;7355355;19;20341;-55
2023/02/26 10:40:31;;;;;;;0.00;0.00;;;;;;;10.22;53.15;102624.94;7349640;19;20556;-55
2023/02/26 10:43:02;;;;;;;0.10;0.10;;;;;;;10.25;53.15;102617.19;7353871;19;20024;-55
2023/02/26 10:45:39;;;;;;;0.00;0.00;;;;;;;10.33;53.88;102615.50;7353391;19;20018;-56
2023/02/26 10:48:24;;;;;;;0.00;0.00;;;;;;;10.49;53.81;102617.41;7351952;19;20022;-56
2023/02/26 10:50:56;;;;;;;0.00;0.00;;;;;;;10.77;54.47;102618.47;7354349;19;20010;-57
2023/02/26 10:53:22;;;;;;;0.00;0.00;;;;;;;11.09;53.84;102618.69;7352748;19;20386;-56
2023/02/26 10:56:02;;;;;;;0.00;0.00;;;;;;;11.21;53.33;102568.22;7353874;19;20185;-56
2023/02/26 10:58:27;;;;;;;0.10;0.10;;;;;;;11.95;51.82;102617.31;7346979;19;20546;-56
2023/02/26 11:00:54;;;;;;;0.00;0.00;;;;;;;12.31;51.34;102620.00;7354514;19;20011;-51
2023/02/26 11:03:29;;;;;;;0.00;0.00;;;;;;;12.72;52.47;102617.38;7351412;19;20002;-56
2023/02/26 11:05:55;;;;;;;0.00;0.00;;;;;;;12.91;50.62;102613.00;7354370;19;20002;-56
2023/02/26 11:08:39;;;;;;;0.00;0.00;;;;;;;13.24;51.70;102623.44;7362320;19;22234;-56
2023/02/26 11:11:05;;;;;;;0.03;0.03;;;;;;;13.33;49.10;102619.94;7358792;19;20018;-56
2023/02/26 11:13:36;;;;;;;0.10;0.10;;;;;;;13.60;49.50;102631.19;7359582;19;20061;-56
2023/02/26 11:16:09;;;;;;;0.10;0.10;;;;;;;13.90;48.46;102630.16;7358901;19;20039;-57
2023/02/26 11:18:41;;;;;;;0.00;0.00;;;;;;;14.17;47.73;102639.63;7358195;19;20039;-56
2023/02/26 11:21:08;;;;;;;0.00;0.00;;;;;;;14.23;47.43;102622.03;7359355;19;20642;-56
2023/02/26 11:23:34;;;;;;;0.08;0.08;;;;;;;14.42;47.58;102624.53;7358631;19;20041;-56
2023/02/26 11:26:05;;;;;;;0.00;0.00;;;;;;;14.70;47.64;102622.56;7354445;19;20010;-56
2023/02/26 11:28:41;;;;;;;0.00;0.00;;;;;;;15.01;48.38;102623.16;7359080;19;20010;-56
2023/02/26 11:31:10;;;;;;;0.00;0.00;;;;;;;15.39;47.31;102632.38;7352774;19;20019;-56
2023/02/26 11:33:39;;;;;;;0.10;0.10;;;;;;;15.71;45.96;102618.84;7357951;19;20577;-56
2023/02/26 11:36:18;;;;;;;0.10;0.10;;;;;;;16.25;48.51;102635.63;7353800;19;20046;-57
2023/02/26 11:38:46;;;;;;;0.00;0.00;;;;;;;16.52;44.88;102631.66;7361250;19;20840;-56
2023/02/26 11:41:12;;;;;;;0.10;0.10;;;;;;;16.86;42.00;102631.13;7359403;19;20018;-57
2023/02/26 11:43:44;;;;;;;0.10;0.10;;;;;;;17.13;43.41;102629.72;7362032;19;20039;-57